sensor_id;sensor_type;location;lat;lon;timestamp;pressure;altitude;pressure_sealevel;temperature;humidity
40502;BME280;29631;49.168;9.848;2023-06-14T00:01:46;96201.78;;;22.23;62.53
40502;BME280;29631;49.168;9.848;2023-06-14T00:04:13;96204.03;;;22.16;62.54
40502;BME280;29631;49.168;9.848;2023-06-14T00:06:39;96225.09;;;22.28;62.72
40502;BME280;29631;49.168;9.848;2023-06-14T00:09:05;96188.66;;;21.98;62.28
40502;BME280;29631;49.168;9.848;2023-06-14T00:11:31;96225.97;;;22.23;62.32
40502;BME280;29631;49.168;9.848;2023-06-14T00:13:57;96230.53;;;22.23;62.68
40502;BME280;29631;49.168;9.848;2023-06-14T00:16:23;96217.16;;;22.18;62.14
40502;BME280;29631;49.168;9.848;2023-06-14T00:18:49;96195.38;;;22.01;62.46
40502;BME280;29631;49.168;9.848;2023-06-14T00:21:17;96208.97;;;22.09;62.54
40502;BME280;29631;49.168;9.848;2023-06-14T00:23:43;96217.00;;;22.09;62.21
40502;BME280;29631;49.168;9.848;2023-06-14T00:26:09;96202.06;;;22.03;62.60
40502;BME280;29631;49.168;9.848;2023-06-14T00:28:34;96224.00;;;22.10;62.62
40502;BME280;29631;49.168;9.848;2023-06-14T00:31:00;96212.78;;;22.03;62.39
40502;BME280;29631;49.168;9.848;2023-06-14T00:33:26;96182.13;;;21.86;62.43
40502;BME280;29631;49.168;9.848;2023-06-14T00:35:52;96221.13;;;22.02;62.67
40502;BME280;29631;49.168;9.848;2023-06-14T00:38:20;96214.44;;;21.99;62.36
40502;BME280;29631;49.168;9.848;2023-06-14T00:40:46;96209.41;;;21.93;62.39
40502;BME280;29631;49.168;9.848;2023-06-14T00:43:12;96211.81;;;21.94;62.56
40502;BME280;29631;49.168;9.848;2023-06-14T00:45:38;96202.28;;;21.84;62.55
40502;BME280;29631;49.168;9.848;2023-06-14T00:48:04;96216.16;;;21.91;62.99
40502;BME280;29631;49.168;9.848;2023-06-14T00:50:32;96217.78;;;21.92;62.73
40502;BME280;29631;49.168;9.848;2023-06-14T00:52:59;96196.91;;;21.84;63.04
40502;BME280;29631;49.168;9.848;2023-06-14T00:55:27;96217.25;;;21.90;62.73
40502;BME280;29631;49.168;9.848;2023-06-14T00:57:55;96184.25;;;21.66;63.25
40502;BME280;29631;49.168;9.848;2023-06-14T01:00:21;96202.16;;;21.70;63.15
40502;BME280;29631;49.168;9.848;2023-06-14T01:02:47;96198.44;;;21.66;62.92
40502;BME280;29631;49.168;9.848;2023-06-14T01:05:14;96192.09;;;21.57;63.28
40502;BME280;29631;49.168;9.848;2023-06-14T01:08:44;96216.44;;;21.66;63.60
40502;BME280;29631;49.168;9.848;2023-06-14T01:11:07;96219.16;;;21.61;63.04
40502;BME280;29631;49.168;9.848;2023-06-14T01:13:40;96188.75;;;21.42;63.46
40502;BME280;29631;49.168;9.848;2023-06-14T01:16:08;96181.88;;;21.31;63.05
40502;BME280;29631;49.168;9.848;2023-06-14T01:18:35;96185.59;;;21.35;63.11
40502;BME280;29631;49.168;9.848;2023-06-14T01:21:02;96186.97;;;21.32;63.30
40502;BME280;29631;49.168;9.848;2023-06-14T01:23:32;96198.44;;;21.38;63.70
40502;BME280;29631;49.168;9.848;2023-06-14T01:25:59;96203.22;;;21.41;63.42
40502;BME280;29631;49.168;9.848;2023-06-14T01:28:26;96218.25;;;21.42;63.63
40502;BME280;29631;49.168;9.848;2023-06-14T01:31:00;96202.81;;;21.29;63.92
40502;BME280;29631;49.168;9.848;2023-06-14T01:33:29;96210.03;;;21.33;63.77
40502;BME280;29631;49.168;9.848;2023-06-14T01:35:56;96201.22;;;21.28;63.70
40502;BME280;29631;49.168;9.848;2023-06-14T01:38:25;96213.00;;;21.32;63.46
40502;BME280;29631;49.168;9.848;2023-06-14T01:40:54;96211.09;;;21.32;63.81
40502;BME280;29631;49.168;9.848;2023-06-14T01:43:21;96154.97;;;20.84;63.82
40502;BME280;29631;49.168;9.848;2023-06-14T01:45:49;96182.06;;;21.11;64.09
40502;BME280;29631;49.168;9.848;2023-06-14T01:48:16;96197.59;;;21.14;63.55
40502;BME280;29631;49.168;9.848;2023-06-14T01:50:42;96196.00;;;21.13;63.96
40502;BME280;29631;49.168;9.848;2023-06-14T01:53:09;96205.66;;;21.14;64.29
40502;BME280;29631;49.168;9.848;2023-06-14T01:55:35;96181.06;;;21.02;64.04
40502;BME280;29631;49.168;9.848;2023-06-14T01:58:06;96196.06;;;21.08;64.19
40502;BME280;29631;49.168;9.848;2023-06-14T02:00:32;96164.28;;;20.92;63.93
40502;BME280;29631;49.168;9.848;2023-06-14T02:02:58;96197.97;;;21.03;64.26
40502;BME280;29631;49.168;9.848;2023-06-14T02:05:24;96200.06;;;21.06;64.40
40502;BME280;29631;49.168;9.848;2023-06-14T02:07:49;96202.50;;;21.07;64.18
40502;BME280;29631;49.168;9.848;2023-06-14T02:10:16;96203.28;;;21.08;64.66
40502;BME280;29631;49.168;9.848;2023-06-14T02:12:43;96210.25;;;21.09;64.26
40502;BME280;29631;49.168;9.848;2023-06-14T02:15:09;96210.53;;;21.07;64.08
40502;BME280;29631;49.168;9.848;2023-06-14T02:17:48;96207.91;;;20.97;64.64
40502;BME280;29631;49.168;9.848;2023-06-14T02:20:15;96202.06;;;20.95;64.00
40502;BME280;29631;49.168;9.848;2023-06-14T02:22:41;96212.75;;;21.00;64.27
40502;BME280;29631;49.168;9.848;2023-06-14T02:25:08;96192.16;;;20.91;64.47
40502;BME280;29631;49.168;9.848;2023-06-14T02:27:34;96186.03;;;20.85;64.50
40502;BME280;29631;49.168;9.848;2023-06-14T02:30:01;96207.38;;;21.00;64.28
40502;BME280;29631;49.168;9.848;2023-06-14T02:32:26;96207.91;;;20.97;64.33
40502;BME280;29631;49.168;9.848;2023-06-14T02:34:53;96207.69;;;20.94;64.31
40502;BME280;29631;49.168;9.848;2023-06-14T02:37:19;96219.69;;;21.01;64.96
40502;BME280;29631;49.168;9.848;2023-06-14T02:39:45;96205.28;;;20.92;64.38
40502;BME280;29631;49.168;9.848;2023-06-14T02:42:11;96186.09;;;20.80;64.67
40502;BME280;29631;49.168;9.848;2023-06-14T02:44:36;96194.88;;;20.86;64.57
40502;BME280;29631;49.168;9.848;2023-06-14T02:47:04;96199.97;;;20.87;64.59
40502;BME280;29631;49.168;9.848;2023-06-14T02:49:30;96198.66;;;20.85;64.82
40502;BME280;29631;49.168;9.848;2023-06-14T02:51:56;96198.91;;;20.83;64.59
40502;BME280;29631;49.168;9.848;2023-06-14T02:54:22;96188.81;;;20.75;64.63
40502;BME280;29631;49.168;9.848;2023-06-14T02:56:47;96215.78;;;20.89;64.83
40502;BME280;29631;49.168;9.848;2023-06-14T02:59:13;96208.06;;;20.77;64.61
40502;BME280;29631;49.168;9.848;2023-06-14T03:01:40;96188.84;;;20.65;64.88
40502;BME280;29631;49.168;9.848;2023-06-14T03:04:08;96205.97;;;20.69;65.18
40502;BME280;29631;49.168;9.848;2023-06-14T03:06:33;96201.69;;;20.63;65.00
40502;BME280;29631;49.168;9.848;2023-06-14T03:09:03;96207.63;;;20.60;65.39
40502;BME280;29631;49.168;9.848;2023-06-14T03:11:32;96211.38;;;20.59;65.07
40502;BME280;29631;49.168;9.848;2023-06-14T03:13:59;96213.81;;;20.56;65.51
40502;BME280;29631;49.168;9.848;2023-06-14T03:16:25;96207.47;;;20.42;65.05
40502;BME280;29631;49.168;9.848;2023-06-14T03:18:54;96198.16;;;20.35;65.75
40502;BME280;29631;49.168;9.848;2023-06-14T03:21:20;96185.91;;;20.24;65.00
40502;BME280;29631;49.168;9.848;2023-06-14T03:23:46;96230.47;;;20.48;65.63
40502;BME280;29631;49.168;9.848;2023-06-14T03:26:12;96223.28;;;20.43;65.58
40502;BME280;29631;49.168;9.848;2023-06-14T03:28:42;96216.59;;;20.41;65.77
40502;BME280;29631;49.168;9.848;2023-06-14T03:31:08;96238.25;;;20.49;66.13
40502;BME280;29631;49.168;9.848;2023-06-14T03:33:34;96229.72;;;20.38;65.90
40502;BME280;29631;49.168;9.848;2023-06-14T03:36:01;96222.25;;;20.35;65.57
40502;BME280;29631;49.168;9.848;2023-06-14T03:38:27;96228.69;;;20.34;65.93
40502;BME280;29631;49.168;9.848;2023-06-14T03:40:53;96230.00;;;20.36;65.68
40502;BME280;29631;49.168;9.848;2023-06-14T03:43:19;96222.81;;;20.27;65.80
40502;BME280;29631;49.168;9.848;2023-06-14T03:45:44;96243.66;;;20.40;65.81
40502;BME280;29631;49.168;9.848;2023-06-14T03:48:10;96179.03;;;20.03;65.44
40502;BME280;29631;49.168;9.848;2023-06-14T03:50:36;96230.84;;;20.27;66.35
40502;BME280;29631;49.168;9.848;2023-06-14T03:53:05;96246.91;;;20.32;65.74
40502;BME280;29631;49.168;9.848;2023-06-14T03:55:31;96258.09;;;20.39;66.04
40502;BME280;29631;49.168;9.848;2023-06-14T03:57:57;96239.47;;;20.19;66.07
40502;BME280;29631;49.168;9.848;2023-06-14T04:00:23;96265.63;;;20.37;66.27
40502;BME280;29631;49.168;9.848;2023-06-14T04:02:49;96267.75;;;20.40;66.35
40502;BME280;29631;49.168;9.848;2023-06-14T04:05:15;96261.06;;;20.37;66.53
40502;BME280;29631;49.168;9.848;2023-06-14T04:07:42;96259.22;;;20.33;66.16
40502;BME280;29631;49.168;9.848;2023-06-14T04:10:14;96247.75;;;20.27;66.56
40502;BME280;29631;49.168;9.848;2023-06-14T04:12:40;96281.72;;;20.37;66.29
40502;BME280;29631;49.168;9.848;2023-06-14T04:15:07;96265.63;;;20.37;66.34
40502;BME280;29631;49.168;9.848;2023-06-14T04:17:34;96256.53;;;20.33;66.51
40502;BME280;29631;49.168;9.848;2023-06-14T04:20:01;96250.41;;;20.27;66.46
40502;BME280;29631;49.168;9.848;2023-06-14T04:22:28;96273.41;;;20.38;66.29
40502;BME280;29631;49.168;9.848;2023-06-14T04:24:57;96275.25;;;20.38;66.36
40502;BME280;29631;49.168;9.848;2023-06-14T04:27:24;96285.94;;;20.47;66.74
40502;BME280;29631;49.168;9.848;2023-06-14T04:29:52;96280.34;;;20.39;66.59
40502;BME280;29631;49.168;9.848;2023-06-14T04:32:29;96280.34;;;20.39;66.61
40502;BME280;29631;49.168;9.848;2023-06-14T04:35:07;96282.22;;;20.43;66.67
40502;BME280;29631;49.168;9.848;2023-06-14T04:37:32;96268.84;;;20.34;66.78
40502;BME280;29631;49.168;9.848;2023-06-14T04:39:58;96281.47;;;20.33;67.11
40502;BME280;29631;49.168;9.848;2023-06-14T04:42:25;96290.22;;;20.48;67.06
40502;BME280;29631;49.168;9.848;2023-06-14T04:44:55;96277.91;;;20.47;66.91
40502;BME280;29631;49.168;9.848;2023-06-14T04:47:21;96263.19;;;20.45;67.20
40502;BME280;29631;49.168;9.848;2023-06-14T04:49:47;96271.19;;;20.50;67.06
40502;BME280;29631;49.168;9.848;2023-06-14T04:52:13;96278.66;;;20.58;67.53
40502;BME280;29631;49.168;9.848;2023-06-14T04:54:39;96284.00;;;20.58;67.54
40502;BME280;29631;49.168;9.848;2023-06-14T04:57:08;96291.72;;;20.64;67.27
40502;BME280;29631;49.168;9.848;2023-06-14T04:59:34;96310.44;;;20.74;67.12
40502;BME280;29631;49.168;9.848;2023-06-14T05:02:01;96293.63;;;20.64;67.23
40502;BME280;29631;49.168;9.848;2023-06-14T05:04:27;96294.41;;;20.69;67.20
40502;BME280;29631;49.168;9.848;2023-06-14T05:06:54;96300.28;;;20.71;67.71
40502;BME280;29631;49.168;9.848;2023-06-14T05:09:20;96249.00;;;20.40;67.66
40502;BME280;29631;49.168;9.848;2023-06-14T05:11:46;96309.63;;;20.84;67.91
40502;BME280;29631;49.168;9.848;2023-06-14T05:14:13;96280.44;;;20.72;67.48
40502;BME280;29631;49.168;9.848;2023-06-14T05:16:40;96283.94;;;20.78;67.84
40502;BME280;29631;49.168;9.848;2023-06-14T05:19:06;96291.66;;;20.84;67.77
40502;BME280;29631;49.168;9.848;2023-06-14T05:21:33;96300.19;;;20.91;67.67
40502;BME280;29631;49.168;9.848;2023-06-14T05:24:01;96303.66;;;20.97;67.68
40502;BME280;29631;49.168;9.848;2023-06-14T05:26:27;96288.69;;;20.91;67.49
40502;BME280;29631;49.168;9.848;2023-06-14T05:28:55;96311.09;;;21.05;67.93
40502;BME280;29631;49.168;9.848;2023-06-14T05:31:25;96322.59;;;21.10;67.73
40502;BME280;29631;49.168;9.848;2023-06-14T05:33:51;96300.63;;;21.03;67.72
40502;BME280;29631;49.168;9.848;2023-06-14T05:36:17;96316.38;;;21.15;67.83
40502;BME280;29631;49.168;9.848;2023-06-14T05:38:44;96329.47;;;21.21;68.22
40502;BME280;29631;49.168;9.848;2023-06-14T05:41:10;96334.28;;;21.24;68.04
40502;BME280;29631;49.168;9.848;2023-06-14T05:43:36;96327.28;;;21.28;68.11
40502;BME280;29631;49.168;9.848;2023-06-14T05:46:02;96323.00;;;21.27;68.24
40502;BME280;29631;49.168;9.848;2023-06-14T05:48:30;96342.97;;;21.44;68.36
40502;BME280;29631;49.168;9.848;2023-06-14T05:50:56;96345.41;;;21.46;67.84
40502;BME280;29631;49.168;9.848;2023-06-14T05:53:22;96341.63;;;21.47;67.71
40502;BME280;29631;49.168;9.848;2023-06-14T05:55:49;96335.69;;;21.50;67.88
40502;BME280;29631;49.168;9.848;2023-06-14T05:58:15;96334.06;;;21.54;67.90
40502;BME280;29631;49.168;9.848;2023-06-14T06:00:41;96349.28;;;21.63;68.35
40502;BME280;29631;49.168;9.848;2023-06-14T06:03:07;96348.22;;;21.64;68.16
40502;BME280;29631;49.168;9.848;2023-06-14T06:05:36;96359.16;;;21.73;68.00
40502;BME280;29631;49.168;9.848;2023-06-14T06:08:02;96359.38;;;21.76;68.05
40502;BME280;29631;49.168;9.848;2023-06-14T06:10:28;96356.94;;;21.80;68.09
40502;BME280;29631;49.168;9.848;2023-06-14T06:12:53;96358.00;;;21.84;68.25
40502;BME280;29631;49.168;9.848;2023-06-14T06:15:20;96352.63;;;21.84;68.52
40502;BME280;29631;49.168;9.848;2023-06-14T06:17:46;96357.88;;;21.93;68.41
40502;BME280;29631;49.168;9.848;2023-06-14T06:20:12;96354.72;;;21.92;67.91
40502;BME280;29631;49.168;9.848;2023-06-14T06:22:38;96366.94;;;22.02;68.48
40502;BME280;29631;49.168;9.848;2023-06-14T06:25:05;96341.78;;;21.93;68.41
40502;BME280;29631;49.168;9.848;2023-06-14T06:27:32;96358.03;;;22.07;68.40
40502;BME280;29631;49.168;9.848;2023-06-14T06:29:58;96366.00;;;22.17;68.44
40502;BME280;29631;49.168;9.848;2023-06-14T06:32:23;96366.75;;;22.22;68.42
40502;BME280;29631;49.168;9.848;2023-06-14T06:34:49;96357.09;;;22.21;68.30
40502;BME280;29631;49.168;9.848;2023-06-14T06:37:15;96352.22;;;22.23;68.19
40502;BME280;29631;49.168;9.848;2023-06-14T06:39:41;96346.81;;;22.28;68.44
40502;BME280;29631;49.168;9.848;2023-06-14T06:42:07;96363.91;;;22.37;68.75
40502;BME280;29631;49.168;9.848;2023-06-14T06:44:33;96350.22;;;22.39;68.52
40502;BME280;29631;49.168;9.848;2023-06-14T06:46:58;96344.53;;;22.40;67.86
40502;BME280;29631;49.168;9.848;2023-06-14T06:49:24;96345.00;;;22.47;68.44
40502;BME280;29631;49.168;9.848;2023-06-14T06:52:05;96363.13;;;22.60;68.48
40502;BME280;29631;49.168;9.848;2023-06-14T06:54:31;96370.34;;;22.65;68.06
40502;BME280;29631;49.168;9.848;2023-06-14T06:56:58;96377.94;;;22.81;68.65
40502;BME280;29631;49.168;9.848;2023-06-14T06:59:24;96378.16;;;22.84;68.25
40502;BME280;29631;49.168;9.848;2023-06-14T07:01:50;96366.88;;;22.82;68.56
40502;BME280;29631;49.168;9.848;2023-06-14T07:04:16;96366.50;;;22.89;68.16
40502;BME280;29631;49.168;9.848;2023-06-14T07:06:42;96379.31;;;22.97;68.37
40502;BME280;29631;49.168;9.848;2023-06-14T07:09:08;96372.03;;;23.02;68.40
40502;BME280;29631;49.168;9.848;2023-06-14T07:11:39;96370.06;;;23.08;68.57
40502;BME280;29631;49.168;9.848;2023-06-14T07:14:05;96376.69;;;23.15;68.13
40502;BME280;29631;49.168;9.848;2023-06-14T07:16:31;96355.81;;;23.07;68.42
40502;BME280;29631;49.168;9.848;2023-06-14T07:18:57;96355.47;;;23.14;68.27
40502;BME280;29631;49.168;9.848;2023-06-14T07:21:23;96366.06;;;23.24;68.33
40502;BME280;29631;49.168;9.848;2023-06-14T07:23:52;96380.72;;;23.36;68.82
40502;BME280;29631;49.168;9.848;2023-06-14T07:26:18;96394.22;;;23.49;68.62
40502;BME280;29631;49.168;9.848;2023-06-14T07:28:44;96396.81;;;23.54;68.48
40502;BME280;29631;49.168;9.848;2023-06-14T07:31:13;96367.47;;;23.40;68.43
40502;BME280;29631;49.168;9.848;2023-06-14T07:33:40;96388.66;;;23.59;68.27
40502;BME280;29631;49.168;9.848;2023-06-14T07:36:06;96390.28;;;23.60;67.97
40502;BME280;29631;49.168;9.848;2023-06-14T07:38:32;96399.81;;;23.71;68.03
40502;BME280;29631;49.168;9.848;2023-06-14T07:40:58;96384.75;;;23.70;68.27
40502;BME280;29631;49.168;9.848;2023-06-14T07:43:24;96398.16;;;23.75;68.12
40502;BME280;29631;49.168;9.848;2023-06-14T07:45:49;96405.84;;;23.82;68.11
40502;BME280;29631;49.168;9.848;2023-06-14T07:48:15;96409.41;;;23.96;68.33
40502;BME280;29631;49.168;9.848;2023-06-14T07:50:41;96413.03;;;24.05;68.19
40502;BME280;29631;49.168;9.848;2023-06-14T07:53:07;96404.63;;;24.06;68.29
40502;BME280;29631;49.168;9.848;2023-06-14T07:55:32;96398.59;;;24.14;68.08
40502;BME280;29631;49.168;9.848;2023-06-14T07:58:05;96410.78;;;24.25;68.47
40502;BME280;29631;49.168;9.848;2023-06-14T08:00:31;96403.09;;;24.32;68.40
40502;BME280;29631;49.168;9.848;2023-06-14T08:02:57;96396.09;;;24.31;68.35
40502;BME280;29631;49.168;9.848;2023-06-14T08:05:25;96400.28;;;24.42;68.13
40502;BME280;29631;49.168;9.848;2023-06-14T08:07:52;96411.56;;;24.57;68.43
40502;BME280;29631;49.168;9.848;2023-06-14T08:10:18;96410.19;;;24.60;68.27
40502;BME280;29631;49.168;9.848;2023-06-14T08:12:43;96416.56;;;24.64;68.39
40502;BME280;29631;49.168;9.848;2023-06-14T08:15:10;96418.66;;;24.80;67.83
40502;BME280;29631;49.168;9.848;2023-06-14T08:17:35;96410.56;;;24.80;67.92
40502;BME280;29631;49.168;9.848;2023-06-14T08:20:02;96380.03;;;24.71;67.64
40502;BME280;29631;49.168;9.848;2023-06-14T08:22:30;96426.06;;;25.01;67.96
40502;BME280;29631;49.168;9.848;2023-06-14T08:25:00;96415.75;;;25.03;67.90
40502;BME280;29631;49.168;9.848;2023-06-14T08:27:27;96413.50;;;25.10;67.79
40502;BME280;29631;49.168;9.848;2023-06-14T08:29:53;96411.19;;;25.17;67.24
40502;BME280;29631;49.168;9.848;2023-06-14T08:32:19;96399.78;;;25.20;67.33
40502;BME280;29631;49.168;9.848;2023-06-14T08:34:45;96416.16;;;25.37;66.82
40502;BME280;29631;49.168;9.848;2023-06-14T08:37:11;96411.84;;;25.36;67.19
40502;BME280;29631;49.168;9.848;2023-06-14T08:39:37;96420.22;;;25.48;67.03
40502;BME280;29631;49.168;9.848;2023-06-14T08:42:03;96411.53;;;25.51;66.92
40502;BME280;29631;49.168;9.848;2023-06-14T08:44:31;96421.09;;;25.57;67.19
40502;BME280;29631;49.168;9.848;2023-06-14T08:46:57;96405.88;;;25.61;67.36
40502;BME280;29631;49.168;9.848;2023-06-14T08:49:25;96406.25;;;25.68;67.06
40502;BME280;29631;49.168;9.848;2023-06-14T08:51:58;96412.56;;;25.77;66.83
40502;BME280;29631;49.168;9.848;2023-06-14T08:54:28;96417.03;;;25.81;67.11
40502;BME280;29631;49.168;9.848;2023-06-14T08:56:59;96411.81;;;25.85;67.02
40502;BME280;29631;49.168;9.848;2023-06-14T08:59:29;96413.78;;;25.93;66.70
40502;BME280;29631;49.168;9.848;2023-06-14T09:01:56;96398.38;;;25.93;66.76
40502;BME280;29631;49.168;9.848;2023-06-14T09:04:23;96417.09;;;26.12;66.92
40502;BME280;29631;49.168;9.848;2023-06-14T09:06:53;96426.22;;;26.16;66.86
40502;BME280;29631;49.168;9.848;2023-06-14T09:09:21;96410.59;;;26.13;67.22
40502;BME280;29631;49.168;9.848;2023-06-14T09:11:52;96437.03;;;26.38;66.63
40502;BME280;29631;49.168;9.848;2023-06-14T09:14:24;96419.69;;;26.39;66.89
40502;BME280;29631;49.168;9.848;2023-06-14T09:16:54;96433.09;;;26.43;66.61
40502;BME280;29631;49.168;9.848;2023-06-14T09:19:24;96423.06;;;26.44;66.26
40502;BME280;29631;49.168;9.848;2023-06-14T09:21:50;96424.91;;;26.57;66.28
40502;BME280;29631;49.168;9.848;2023-06-14T09:24:19;96428.25;;;26.62;66.37
40502;BME280;29631;49.168;9.848;2023-06-14T09:26:47;96419.03;;;26.63;65.87
40502;BME280;29631;49.168;9.848;2023-06-14T09:29:13;96429.09;;;26.71;65.61
40502;BME280;29631;49.168;9.848;2023-06-14T09:31:39;96416.03;;;26.65;65.49
40502;BME280;29631;49.168;9.848;2023-06-14T09:34:05;96438.72;;;26.86;65.47
40502;BME280;29631;49.168;9.848;2023-06-14T09:36:32;96415.28;;;26.81;65.74
40502;BME280;29631;49.168;9.848;2023-06-14T09:39:03;96444.31;;;26.98;65.26
40502;BME280;29631;49.168;9.848;2023-06-14T09:43:59;96429.81;;;26.94;65.16
40502;BME280;29631;49.168;9.848;2023-06-14T09:46:28;96432.75;;;27.06;64.93
40502;BME280;29631;49.168;9.848;2023-06-14T09:48:58;96409.66;;;27.00;65.11
40502;BME280;29631;49.168;9.848;2023-06-14T09:51:25;96422.44;;;27.16;64.80
40502;BME280;29631;49.168;9.848;2023-06-14T09:53:53;96422.44;;;27.16;64.40
40502;BME280;29631;49.168;9.848;2023-06-14T09:56:29;96438.56;;;27.29;64.24
40502;BME280;29631;49.168;9.848;2023-06-14T09:58:59;96433.47;;;27.28;64.58
40502;BME280;29631;49.168;9.848;2023-06-14T10:01:28;96421.25;;;27.39;64.83
40502;BME280;29631;49.168;9.848;2023-06-14T10:04:06;96428.56;;;27.47;64.78
40502;BME280;29631;49.168;9.848;2023-06-14T10:06:41;96410.41;;;27.39;64.33
40502;BME280;29631;49.168;9.848;2023-06-14T10:09:10;96428.63;;;27.64;64.30
40502;BME280;29631;49.168;9.848;2023-06-14T10:11:37;96424.16;;;27.68;64.12
40502;BME280;29631;49.168;9.848;2023-06-14T10:14:06;96442.66;;;27.83;64.03
40502;BME280;29631;49.168;9.848;2023-06-14T10:24:43;96419.69;;;28.05;63.43
40502;BME280;29631;49.168;9.848;2023-06-14T10:27:09;96430.06;;;28.12;63.44
40502;BME280;29631;49.168;9.848;2023-06-14T10:32:27;96435.81;;;28.27;63.21
40502;BME280;29631;49.168;9.848;2023-06-14T10:34:57;96430.84;;;28.29;62.25
40502;BME280;29631;49.168;9.848;2023-06-14T10:37:23;96438.50;;;28.36;62.39
40502;BME280;29631;49.168;9.848;2023-06-14T10:39:50;96427.50;;;28.32;61.90
40502;BME280;29631;49.168;9.848;2023-06-14T10:42:17;96437.25;;;28.33;62.25
40502;BME280;29631;49.168;9.848;2023-06-14T10:44:54;96431.66;;;28.30;61.71
40502;BME280;29631;49.168;9.848;2023-06-14T10:47:32;96427.16;;;28.34;61.88
40502;BME280;29631;49.168;9.848;2023-06-14T10:50:10;96416.03;;;28.35;62.10
40502;BME280;29631;49.168;9.848;2023-06-14T10:52:41;96438.78;;;28.51;61.74
40502;BME280;29631;49.168;9.848;2023-06-14T10:57:41;96397.63;;;28.41;61.78
40502;BME280;29631;49.168;9.848;2023-06-14T11:00:10;96420.28;;;28.53;62.16
40502;BME280;29631;49.168;9.848;2023-06-14T11:06:00;96429.66;;;28.64;61.37
40502;BME280;29631;49.168;9.848;2023-06-14T11:09:16;96430.13;;;28.66;61.44
40502;BME280;29631;49.168;9.848;2023-06-14T11:11:46;96420.22;;;28.70;62.10
40502;BME280;29631;49.168;9.848;2023-06-14T11:14:14;96421.34;;;28.77;61.87
40502;BME280;29631;49.168;9.848;2023-06-14T11:16:40;96419.72;;;28.85;61.52
40502;BME280;29631;49.168;9.848;2023-06-14T11:19:06;96417.16;;;28.88;61.46
40502;BME280;29631;49.168;9.848;2023-06-14T11:21:33;96425.75;;;28.90;61.56
40502;BME280;29631;49.168;9.848;2023-06-14T11:23:59;96418.41;;;28.91;61.44
40502;BME280;29631;49.168;9.848;2023-06-14T11:26:29;96417.16;;;28.88;61.21
40502;BME280;29631;49.168;9.848;2023-06-14T11:29:00;96413.47;;;28.93;61.07
40502;BME280;29631;49.168;9.848;2023-06-14T11:31:27;96424.13;;;28.98;60.53
40502;BME280;29631;49.168;9.848;2023-06-14T11:33:55;96408.75;;;29.02;60.36
40502;BME280;29631;49.168;9.848;2023-06-14T11:36:22;96414.97;;;29.11;60.75
40502;BME280;29631;49.168;9.848;2023-06-14T11:38:49;96416.88;;;29.10;60.76
40502;BME280;29631;49.168;9.848;2023-06-14T11:41:15;96421.31;;;29.15;60.20
40502;BME280;29631;49.168;9.848;2023-06-14T11:43:40;96414.44;;;29.17;60.40
40502;BME280;29631;49.168;9.848;2023-06-14T11:46:13;96419.56;;;29.19;59.72
40502;BME280;29631;49.168;9.848;2023-06-14T11:48:43;96417.00;;;29.14;59.90
40502;BME280;29631;49.168;9.848;2023-06-14T11:51:09;96417.16;;;29.17;60.18
40502;BME280;29631;49.168;9.848;2023-06-14T11:53:36;96414.44;;;29.17;59.77
40502;BME280;29631;49.168;9.848;2023-06-14T11:56:03;96418.59;;;29.15;59.86
40502;BME280;29631;49.168;9.848;2023-06-14T11:58:29;96423.59;;;29.13;59.41
40502;BME280;29631;49.168;9.848;2023-06-14T12:00:55;96412.25;;;29.11;59.52
40502;BME280;29631;49.168;9.848;2023-06-14T12:03:26;96408.56;;;29.07;59.03
40502;BME280;29631;49.168;9.848;2023-06-14T12:08:47;96412.22;;;28.82;58.60
40502;BME280;29631;49.168;9.848;2023-06-14T12:11:15;96404.41;;;28.80;59.11
40502;BME280;29631;49.168;9.848;2023-06-14T12:13:43;96409.34;;;28.87;59.39
40502;BME280;29631;49.168;9.848;2023-06-14T12:16:12;96403.22;;;28.90;58.95
40502;BME280;29631;49.168;9.848;2023-06-14T12:18:39;96399.69;;;28.98;58.64
40502;BME280;29631;49.168;9.848;2023-06-14T12:21:07;96399.69;;;28.98;58.74
40502;BME280;29631;49.168;9.848;2023-06-14T12:23:47;96408.31;;;29.00;58.21
40502;BME280;29631;49.168;9.848;2023-06-14T12:26:18;96408.44;;;29.03;58.75
40502;BME280;29631;49.168;9.848;2023-06-14T12:28:47;96402.69;;;29.05;59.05
40502;BME280;29631;49.168;9.848;2023-06-14T12:31:15;96402.03;;;29.08;58.04
40502;BME280;29631;49.168;9.848;2023-06-14T12:33:42;96403.00;;;29.03;58.49
40502;BME280;29631;49.168;9.848;2023-06-14T12:36:09;96402.34;;;29.06;58.30
40502;BME280;29631;49.168;9.848;2023-06-14T12:38:36;96410.16;;;29.08;58.46
40502;BME280;29631;49.168;9.848;2023-06-14T12:41:03;96403.63;;;29.09;58.44
40502;BME280;29631;49.168;9.848;2023-06-14T12:43:29;96413.38;;;29.10;58.29
40502;BME280;29631;49.168;9.848;2023-06-14T12:45:55;96395.19;;;29.02;58.09
40502;BME280;29631;49.168;9.848;2023-06-14T12:48:21;96399.16;;;29.04;58.34
40502;BME280;29631;49.168;9.848;2023-06-14T12:50:47;96407.16;;;29.09;58.83
40502;BME280;29631;49.168;9.848;2023-06-14T12:53:13;96409.66;;;29.14;58.36
40502;BME280;29631;49.168;9.848;2023-06-14T12:55:39;96411.41;;;29.19;59.13
40502;BME280;29631;49.168;9.848;2023-06-14T12:58:05;96404.38;;;29.18;58.67
40502;BME280;29631;49.168;9.848;2023-06-14T13:00:31;96414.84;;;29.28;58.83
40502;BME280;29631;49.168;9.848;2023-06-14T13:02:57;96408.31;;;29.29;58.96
40502;BME280;29631;49.168;9.848;2023-06-14T13:05:24;96406.50;;;29.33;58.38
40502;BME280;29631;49.168;9.848;2023-06-14T13:07:50;96400.47;;;29.36;59.05
40502;BME280;29631;49.168;9.848;2023-06-14T13:10:17;96409.69;;;29.43;58.61
40502;BME280;29631;49.168;9.848;2023-06-14T13:12:43;96412.53;;;29.46;58.16
40502;BME280;29631;49.168;9.848;2023-06-14T13:15:09;96407.22;;;29.50;58.40
40502;BME280;29631;49.168;9.848;2023-06-14T13:17:36;96401.28;;;29.56;58.12
40502;BME280;29631;49.168;9.848;2023-06-14T13:20:06;96399.16;;;29.62;58.11
40502;BME280;29631;49.168;9.848;2023-06-14T13:22:33;96401.34;;;29.68;58.93
40502;BME280;29631;49.168;9.848;2023-06-14T13:24:59;96401.28;;;29.77;58.02